Time;durP1;ratioP1;P1;durP2;ratioP2;P2;SDS_P1;SDS_P2;PMS_P1;PMS_P2;Temp;Humidity;BMP_temperature;BMP_pressure;BME280_temperature;BME280_humidity;BME280_pressure;Samples;Min_cycle;Max_cycle;Signal;HPM_P1;HPM_P2
2022/12/22 03:28:14;;;;;;;12.73;9.07;;;11.40;85.40;;;;;;5109586;28;20368;-64
2022/12/22 03:30:39;;;;;;;13.30;9.98;;;11.50;85.50;;;;;;5101747;28;20028;-64
2022/12/22 03:33:05;;;;;;;13.85;9.65;;;11.50;85.50;;;;;;5116397;27;20032;-64
2022/12/22 03:35:32;;;;;;;13.45;9.65;;;11.50;85.60;;;;;;5109422;27;20440;-63
2022/12/22 03:38:02;;;;;;;12.77;10.00;;;11.40;85.50;;;;;;5115104;28;20028;-63
2022/12/22 03:40:31;;;;;;;14.20;10.05;;;11.40;85.50;;;;;;5100711;27;20479;-64
2022/12/22 03:48:25;;;;;;;13.15;9.60;;;11.50;85.60;;;;;;5119197;27;20027;-64
2022/12/22 03:50:51;;;;;;;13.02;9.25;;;11.50;85.60;;;;;;5105138;27;20403;-63
2022/12/22 03:53:17;;;;;;;14.52;10.35;;;11.40;85.50;;;;;;5105201;28;20027;-64
2022/12/22 03:55:42;;;;;;;17.38;9.70;;;11.40;85.50;;;;;;5109296;28;20031;-64
2022/12/22 03:58:08;;;;;;;13.15;9.30;;;11.40;85.50;;;;;;5113974;28;20024;-64
2022/12/22 04:00:34;;;;;;;13.70;9.40;;;11.50;85.60;;;;;;5108499;27;20119;-64
2022/12/22 04:02:59;;;;;;;13.68;10.45;;;11.40;85.50;;;;;;5109937;28;20059;-63
2022/12/22 04:05:27;;;;;;;14.50;9.52;;;11.40;85.60;;;;;;5114124;28;20031;-64
2022/12/22 04:07:52;;;;;;;13.90;9.98;;;11.40;85.60;;;;;;5102010;28;20026;-64
2022/12/22 04:13:02;;;;;;;13.30;9.30;;;11.40;85.60;;;;;;5110137;27;20031;-64
2022/12/22 04:15:30;;;;;;;11.65;8.63;;;11.40;85.60;;;;;;5106744;27;20380;-64
2022/12/22 04:17:56;;;;;;;13.60;9.52;;;11.40;85.70;;;;;;5106709;28;20071;-64
2022/12/22 04:20:25;;;;;;;12.43;8.52;;;11.40;85.70;;;;;;5107854;28;20460;-63
2022/12/22 04:22:52;;;;;;;13.85;9.85;;;11.40;85.70;;;;;;5105788;28;20023;-64
2022/12/22 04:25:18;;;;;;;13.05;9.68;;;11.40;85.70;;;;;;5109859;28;20353;-64
2022/12/22 04:27:44;;;;;;;12.30;9.05;;;11.40;85.80;;;;;;5094785;28;20114;-64
2022/12/22 04:30:10;;;;;;;12.73;9.90;;;11.40;85.80;;;;;;5106239;28;20049;-64
2022/12/22 04:32:37;;;;;;;12.43;9.45;;;11.40;85.80;;;;;;5096865;28;20063;-64
2022/12/22 04:35:03;;;;;;;13.30;10.07;;;11.40;85.80;;;;;;5108388;28;20023;-64
2022/12/22 04:37:29;;;;;;;12.73;9.23;;;11.40;85.80;;;;;;5086149;28;20030;-63
2022/12/22 04:39:55;;;;;;;13.75;9.30;;;11.40;85.80;;;;;;5110201;28;20023;-64
2022/12/22 04:42:21;;;;;;;12.93;8.82;;;11.50;85.90;;;;;;5097203;28;20039;-64
2022/12/22 04:44:46;;;;;;;14.63;9.63;;;11.40;85.90;;;;;;5109635;28;20352;-63
2022/12/22 04:47:12;;;;;;;11.68;8.88;;;11.40;85.90;;;;;;5098064;28;20058;-63
2022/12/22 04:49:38;;;;;;;13.68;9.85;;;11.40;85.90;;;;;;5109154;28;20059;-63
2022/12/22 04:52:03;;;;;;;15.13;9.45;;;11.50;85.90;;;;;;5109518;28;20038;-64
2022/12/22 04:54:29;;;;;;;13.63;9.60;;;11.50;85.90;;;;;;5100727;28;20016;-63
2022/12/22 04:56:55;;;;;;;12.57;9.65;;;11.50;85.90;;;;;;5104347;27;20054;-63
2022/12/22 04:59:21;;;;;;;13.05;9.85;;;11.50;85.90;;;;;;5102178;28;20364;-64
2022/12/22 05:01:46;;;;;;;12.52;8.93;;;11.50;85.90;;;;;;5095089;28;20031;-63
2022/12/22 05:04:12;;;;;;;14.07;9.73;;;11.50;85.80;;;;;;5106172;28;20106;-63
2022/12/22 05:06:38;;;;;;;13.73;9.85;;;11.50;85.90;;;;;;5107043;28;20434;-64
2022/12/22 05:09:03;;;;;;;14.05;10.20;;;11.50;85.90;;;;;;5100334;28;20073;-63
2022/12/22 05:11:29;;;;;;;13.70;10.07;;;11.50;85.90;;;;;;5109764;28;20024;-64
2022/12/22 05:13:55;;;;;;;14.75;11.13;;;11.50;85.90;;;;;;5104769;28;20527;-64
2022/12/22 05:16:20;;;;;;;13.45;9.85;;;11.50;85.90;;;;;;5107586;28;20031;-64
2022/12/22 05:18:46;;;;;;;13.60;10.05;;;11.50;85.90;;;;;;5098760;28;20032;-63
2022/12/22 05:21:14;;;;;;;14.73;10.30;;;11.50;85.90;;;;;;5116101;27;20419;-63
2022/12/22 05:23:40;;;;;;;14.27;10.27;;;11.50;85.90;;;;;;5104383;28;20494;-63
2022/12/22 05:26:07;;;;;;;13.82;10.00;;;11.50;85.90;;;;;;5110298;28;20099;-63
2022/12/22 05:28:33;;;;;;;13.70;9.75;;;11.50;85.90;;;;;;5098324;28;20036;-63
2022/12/22 05:31:05;;;;;;;13.95;10.00;;;11.50;85.90;;;;;;5105246;28;20100;-64
2022/12/22 05:33:31;;;;;;;15.65;10.68;;;11.50;86.00;;;;;;5107552;28;20028;-64
2022/12/22 05:35:56;;;;;;;14.30;10.13;;;11.50;86.00;;;;;;5089958;28;20028;-64
2022/12/22 05:38:22;;;;;;;14.82;11.25;;;11.50;86.00;;;;;;5108161;28;20030;-63
2022/12/22 05:40:48;;;;;;;15.82;11.15;;;11.50;86.00;;;;;;5109303;28;20027;-64
2022/12/22 05:43:14;;;;;;;16.88;11.60;;;11.50;86.00;;;;;;5102662;28;20062;-63
2022/12/22 05:45:40;;;;;;;16.38;10.95;;;11.50;86.00;;;;;;5097879;28;20036;-64
2022/12/22 05:48:06;;;;;;;18.67;12.25;;;11.50;86.00;;;;;;5106424;28;20099;-64
2022/12/22 05:50:32;;;;;;;19.50;11.68;;;11.50;86.00;;;;;;5107509;28;20067;-64
2022/12/22 05:53:04;;;;;;;18.35;13.05;;;11.50;86.00;;;;;;5109606;28;20515;-64
2022/12/22 05:55:30;;;;;;;18.20;12.48;;;11.50;86.00;;;;;;5093853;28;20020;-63
2022/12/22 05:57:55;;;;;;;18.77;12.57;;;11.50;86.00;;;;;;5087966;28;20031;-64
2022/12/22 06:00:22;;;;;;;17.30;11.80;;;11.50;86.10;;;;;;5095038;28;20100;-64
2022/12/22 06:02:47;;;;;;;19.58;12.63;;;11.50;86.10;;;;;;5101891;28;20039;-64
2022/12/22 06:05:14;;;;;;;18.05;12.45;;;11.50;86.20;;;;;;5108365;28;20027;-63
2022/12/22 06:07:40;;;;;;;17.98;12.48;;;11.50;86.20;;;;;;5109964;28;20031;-64
2022/12/22 06:10:07;;;;;;;17.50;11.57;;;11.50;86.20;;;;;;5112332;28;20311;-65
2022/12/22 06:12:33;;;;;;;17.42;11.63;;;11.50;86.20;;;;;;5127657;28;20024;-64
2022/12/22 06:14:58;;;;;;;16.27;11.20;;;11.50;86.30;;;;;;5107124;28;20062;-66
2022/12/22 06:17:24;;;;;;;18.27;11.63;;;11.50;86.30;;;;;;5110076;28;20020;-64
2022/12/22 06:19:50;;;;;;;17.63;12.25;;;11.40;86.20;;;;;;5107232;28;20046;-63
2022/12/22 06:22:16;;;;;;;17.15;12.23;;;11.40;86.20;;;;;;5108748;28;20038;-63
2022/12/22 06:24:41;;;;;;;16.80;11.38;;;11.50;86.30;;;;;;5104622;28;20034;-63
2022/12/22 06:27:07;;;;;;;16.60;10.93;;;11.40;86.30;;;;;;5098068;28;20036;-63
2022/12/22 06:29:33;;;;;;;17.15;11.63;;;11.40;86.30;;;;;;5095481;28;20028;-64
2022/12/22 06:31:59;;;;;;;16.80;11.18;;;11.40;86.40;;;;;;5093841;28;20080;-63
2022/12/22 06:34:24;;;;;;;16.38;10.75;;;11.40;86.40;;;;;;5096295;28;20047;-63
2022/12/22 06:36:50;;;;;;;18.60;12.95;;;11.40;86.40;;;;;;5097001;28;20051;-63
2022/12/22 06:39:16;;;;;;;18.00;12.07;;;11.40;86.40;;;;;;5093862;28;20060;-63
2022/12/22 06:44:26;;;;;;;17.38;10.75;;;11.50;86.40;;;;;;5092893;28;20414;-63
2022/12/22 06:46:52;;;;;;;20.10;11.77;;;11.50;86.50;;;;;;5097201;28;20363;-63
2022/12/22 06:49:19;;;;;;;17.98;11.57;;;11.50;86.50;;;;;;5101460;28;20455;-63
2022/12/22 06:51:45;;;;;;;20.00;10.68;;;11.40;86.40;;;;;;5111941;28;20185;-63
2022/12/22 06:54:10;;;;;;;18.13;11.48;;;11.40;86.40;;;;;;5095068;28;20027;-63
2022/12/22 06:56:36;;;;;;;17.85;11.32;;;11.50;86.50;;;;;;5112312;28;20028;-63
2022/12/22 06:59:02;;;;;;;19.35;10.65;;;11.50;86.50;;;;;;5111702;28;20050;-64
2022/12/22 07:01:28;;;;;;;16.77;9.45;;;11.50;86.60;;;;;;5111126;28;20333;-64
2022/12/22 07:03:53;;;;;;;17.88;11.20;;;11.50;86.50;;;;;;5112036;28;20024;-63
2022/12/22 07:06:19;;;;;;;17.98;9.90;;;11.50;86.50;;;;;;5105688;27;20023;-64
2022/12/22 07:08:46;;;;;;;17.88;10.20;;;11.60;86.50;;;;;;5112582;28;20028;-65
2022/12/22 07:11:13;;;;;;;16.95;10.25;;;11.60;86.50;;;;;;5108493;28;20415;-64
2022/12/22 07:13:39;;;;;;;17.02;10.10;;;11.60;86.50;;;;;;5115957;28;20020;-64
2022/12/22 07:16:06;;;;;;;17.42;10.75;;;11.60;86.50;;;;;;5111331;28;20057;-64
2022/12/22 07:18:37;;;;;;;15.50;9.35;;;11.60;86.40;;;;;;5108167;28;20044;-64
2022/12/22 07:21:08;;;;;;;16.13;9.32;;;11.60;86.50;;;;;;5094333;28;20371;-64
2022/12/22 07:23:35;;;;;;;16.38;9.02;;;11.60;86.50;;;;;;5102493;28;20023;-64
2022/12/22 07:26:02;;;;;;;15.70;9.55;;;11.50;86.40;;;;;;5103951;28;20085;-65
2022/12/22 07:28:28;;;;;;;14.27;8.38;;;11.50;86.40;;;;;;5078879;28;20035;-65
2022/12/22 07:30:54;;;;;;;15.07;9.38;;;11.50;86.40;;;;;;5103469;28;20040;-64
2022/12/22 07:33:20;;;;;;;14.02;8.82;;;11.50;86.50;;;;;;5105869;28;20057;-64
2022/12/22 07:35:46;;;;;;;15.38;9.57;;;11.50;86.40;;;;;;5098576;28;20059;-66
2022/12/22 07:38:12;;;;;;;15.75;9.15;;;11.50;86.40;;;;;;5108634;28;20048;-65
2022/12/22 07:40:38;;;;;;;14.75;9.30;;;11.50;86.40;;;;;;5114104;28;20505;-64
2022/12/22 07:43:03;;;;;;;14.27;8.30;;;11.50;86.40;;;;;;5111923;28;20047;-65
2022/12/22 07:45:29;;;;;;;14.93;8.75;;;11.50;86.40;;;;;;5107289;28;20088;-64
2022/12/22 07:47:59;;;;;;;15.73;9.18;;;11.50;86.40;;;;;;5106176;28;20028;-65
2022/12/22 07:50:26;;;;;;;15.45;9.18;;;11.50;86.30;;;;;;5097789;28;20028;-66
2022/12/22 07:52:56;;;;;;;15.20;8.63;;;11.40;86.30;;;;;;5100727;28;20432;-66
2022/12/22 07:55:23;;;;;;;14.38;8.90;;;11.40;86.30;;;;;;5126727;27;20076;-66
2022/12/22 07:57:50;;;;;;;14.48;8.07;;;11.40;86.30;;;;;;5100451;27;20023;-66
2022/12/22 08:00:17;;;;;;;15.65;9.27;;;11.40;86.30;;;;;;5112117;28;20057;-65
2022/12/22 08:02:48;;;;;;;16.05;9.25;;;11.40;86.30;;;;;;5107170;28;20023;-65
2022/12/22 08:05:13;;;;;;;16.23;9.60;;;11.50;86.30;;;;;;5104977;28;20028;-65
2022/12/22 08:07:39;;;;;;;18.27;10.75;;;11.50;86.30;;;;;;5106023;27;20486;-65
2022/12/22 08:10:05;;;;;;;19.95;11.60;;;11.40;86.10;;;;;;5122532;27;20038;-65
2022/12/22 08:12:31;;;;;;;19.67;11.55;;;11.40;86.10;;;;;;5097413;27;20022;-65
2022/12/22 08:14:58;;;;;;;19.40;11.48;;;11.40;86.10;;;;;;5103875;28;20604;-65
2022/12/22 08:17:26;;;;;;;19.13;11.43;;;11.40;86.10;;;;;;5101316;28;20107;-65
2022/12/22 08:19:53;;;;;;;21.17;12.18;;;11.40;86.10;;;;;;5104614;28;20487;-65
2022/12/22 08:22:22;;;;;;;21.17;11.30;;;11.40;86.10;;;;;;5095430;28;20050;-65
2022/12/22 08:24:51;;;;;;;19.38;12.57;;;11.40;86.00;;;;;;5092616;28;20028;-68
2022/12/22 08:27:23;;;;;;;23.23;12.63;;;11.40;85.90;;;;;;5111999;28;20110;-66
2022/12/22 08:29:52;;;;;;;21.40;12.45;;;11.40;85.90;;;;;;5106759;27;20431;-68
2022/12/22 08:32:18;;;;;;;22.58;12.88;;;11.50;85.90;;;;;;5125896;27;20365;-68
2022/12/22 08:34:44;;;;;;;24.25;13.02;;;11.50;85.80;;;;;;5103744;28;20019;-64
2022/12/22 08:37:14;;;;;;;23.65;13.05;;;11.50;85.70;;;;;;5095693;27;20186;-66
2022/12/22 08:39:41;;;;;;;25.35;13.50;;;11.60;85.70;;;;;;5096851;28;20058;-69
2022/12/22 08:42:10;;;;;;;23.70;14.38;;;11.60;85.70;;;;;;5111869;28;20042;-68
2022/12/22 08:44:37;;;;;;;22.85;13.93;;;11.60;85.50;;;;;;5111728;28;20027;-69
2022/12/22 08:47:03;;;;;;;23.17;13.50;;;11.60;85.40;;;;;;5107722;28;20054;-69
2022/12/22 08:49:29;;;;;;;25.20;14.30;;;11.70;85.30;;;;;;5093542;28;20039;-69
2022/12/22 08:51:55;;;;;;;26.33;14.13;;;11.60;85.30;;;;;;5101264;28;20024;-67
2022/12/22 08:54:22;;;;;;;25.95;14.45;;;11.60;85.20;;;;;;5106690;28;20023;-67
2022/12/22 08:56:48;;;;;;;25.45;13.88;;;11.60;85.20;;;;;;5107761;27;20489;-67
2022/12/22 08:59:15;;;;;;;24.23;14.52;;;11.60;85.20;;;;;;5093436;28;20028;-67
2022/12/22 09:01:43;;;;;;;24.00;14.00;;;11.60;85.10;;;;;;5103993;28;20113;-67
2022/12/22 09:04:11;;;;;;;25.10;14.35;;;11.60;85.20;;;;;;5111833;28;20027;-67
2022/12/22 09:06:37;;;;;;;27.30;14.45;;;11.50;85.10;;;;;;5102817;28;20080;-68
2022/12/22 09:09:05;;;;;;;23.75;14.88;;;11.50;85.20;;;;;;5108039;28;20023;-68
2022/12/22 09:11:32;;;;;;;24.83;15.15;;;11.50;85.20;;;;;;5112045;27;20077;-68
2022/12/22 09:14:01;;;;;;;25.00;15.30;;;11.50;85.20;;;;;;5115147;27;20068;-68
2022/12/22 09:16:28;;;;;;;23.65;14.07;;;11.50;85.20;;;;;;5095956;28;20039;-68
2022/12/22 09:18:54;;;;;;;27.05;14.68;;;11.40;85.20;;;;;;5096355;28;20048;-68
2022/12/22 09:21:21;;;;;;;26.20;15.07;;;11.40;85.20;;;;;;5092745;28;20043;-69
2022/12/22 09:23:47;;;;;;;23.05;13.75;;;11.40;85.10;;;;;;5085687;28;20511;-68
2022/12/22 09:26:16;;;;;;;27.02;14.77;;;11.40;85.10;;;;;;5108599;28;20126;-70
2022/12/22 09:28:42;;;;;;;28.30;15.05;;;11.40;85.00;;;;;;5094609;28;20111;-69
2022/12/22 09:31:10;;;;;;;22.80;13.80;;;11.40;85.00;;;;;;5104320;28;20027;-68
2022/12/22 09:33:36;;;;;;;25.80;13.57;;;11.40;84.90;;;;;;5097061;28;20085;-70
2022/12/22 09:36:11;;;;;;;25.52;14.40;;;11.40;84.90;;;;;;5105774;28;20032;-68
2022/12/22 09:38:39;;;;;;;27.35;14.68;;;11.40;84.80;;;;;;5101233;28;20059;-69
2022/12/22 09:41:13;;;;;;;28.58;13.85;;;11.40;84.70;;;;;;5089423;28;20132;-68
2022/12/22 09:43:39;;;;;;;26.73;13.23;;;11.50;84.60;;;;;;5095336;28;20039;-68
2022/12/22 09:46:18;;;;;;;24.38;13.00;;;11.60;84.50;;;;;;5098779;28;20032;-69
2022/12/22 09:48:44;;;;;;;26.08;13.13;;;11.60;84.30;;;;;;5096345;28;20024;-68
2022/12/22 09:51:14;;;;;;;23.90;13.25;;;11.60;84.20;;;;;;5101183;28;20028;-69
2022/12/22 09:53:42;;;;;;;22.40;12.30;;;11.60;84.00;;;;;;5099321;28;20052;-69
2022/12/22 09:56:15;;;;;;;27.60;13.52;;;11.60;84.00;;;;;;5102084;28;20042;-70
2022/12/22 09:58:41;;;;;;;22.98;12.65;;;11.70;83.90;;;;;;5121898;28;20059;-69
2022/12/22 10:01:44;;;;;;;22.52;11.90;;;11.70;83.80;;;;;;5116567;28;20074;-69
2022/12/22 10:04:41;;;;;;;26.88;13.18;;;11.80;83.70;;;;;;5111667;28;20027;-69
2022/12/22 10:07:35;;;;;;;25.88;13.02;;;11.70;83.60;;;;;;5088865;28;20043;-68
2022/12/22 10:10:07;;;;;;;25.95;12.63;;;11.70;83.60;;;;;;5080783;28;20035;-69
2022/12/22 10:12:33;;;;;;;26.67;12.65;;;11.80;83.40;;;;;;5094203;28;20108;-69
2022/12/22 10:14:58;;;;;;;24.42;12.65;;;11.90;83.30;;;;;;5083647;28;20442;-69
2022/12/22 10:17:32;;;;;;;23.00;12.57;;;11.80;83.10;;;;;;5117322;28;20042;-69
2022/12/22 10:20:13;;;;;;;26.58;13.13;;;11.80;83.10;;;;;;5109251;28;20368;-69
2022/12/22 10:22:48;;;;;;;25.30;12.63;;;11.60;83.10;;;;;;5099116;28;20036;-69
2022/12/22 10:25:54;;;;;;;22.00;11.93;;;11.60;83.20;;;;;;5099463;28;20031;-69
2022/12/22 10:28:25;;;;;;;23.90;11.60;;;11.60;83.10;;;;;;5100436;28;20468;-69
2022/12/22 10:31:17;;;;;;;22.10;10.70;;;11.50;83.20;;;;;;5093855;28;20429;-69
2022/12/22 10:33:44;;;;;;;22.05;10.63;;;11.60;83.10;;;;;;5100423;28;20020;-69
2022/12/22 10:36:13;;;;;;;21.52;10.13;;;11.70;82.90;;;;;;5092914;28;20027;-69
2022/12/22 10:38:52;;;;;;;19.15;9.95;;;11.70;82.50;;;;;;5097455;28;20020;-69
2022/12/22 10:41:21;;;;;;;17.88;9.15;;;11.70;82.40;;;;;;5105263;28;20046;-69
2022/12/22 10:44:08;;;;;;;19.83;10.27;;;11.70;82.40;;;;;;5108954;28;20114;-69
2022/12/22 10:46:45;;;;;;;21.02;9.32;;;11.70;82.40;;;;;;5092897;28;20030;-69
2022/12/22 10:49:17;;;;;;;18.08;9.43;;;11.70;82.30;;;;;;5113120;28;20035;-69
2022/12/22 10:51:45;;;;;;;17.95;9.02;;;11.70;82.20;;;;;;5113401;28;20032;-68
2022/12/22 10:54:34;;;;;;;18.35;7.97;;;11.70;82.10;;;;;;5116637;28;20023;-68
2022/12/22 10:57:12;;;;;;;19.80;7.90;;;11.60;82.00;;;;;;5116358;27;20034;-70
2022/12/22 10:59:59;;;;;;;16.85;8.48;;;11.50;82.10;;;;;;5112276;28;20070;-68
2022/12/22 11:02:25;;;;;;;16.52;7.93;;;11.50;82.10;;;;;;5108135;27;20032;-69
2022/12/22 11:04:52;;;;;;;16.55;7.70;;;11.50;82.20;;;;;;5109038;28;20437;-69
2022/12/22 11:07:18;;;;;;;17.00;8.73;;;11.50;82.20;;;;;;5113614;28;20107;-68
2022/12/22 11:09:44;;;;;;;18.42;8.45;;;11.50;82.10;;;;;;5109118;28;20107;-68
2022/12/22 11:12:26;;;;;;;16.88;7.65;;;11.50;82.10;;;;;;5105377;27;20115;-68
2022/12/22 11:15:00;;;;;;;15.05;7.28;;;11.50;81.90;;;;;;5100828;27;20322;-68
2022/12/22 11:18:05;;;;;;;15.32;7.57;;;11.50;81.90;;;;;;5102955;28;20032;-69
2022/12/22 11:20:48;;;;;;;14.68;7.35;;;11.50;81.90;;;;;;5054091;28;20442;-67
2022/12/22 11:23:29;;;;;;;14.68;7.38;;;11.50;81.90;;;;;;5054887;28;20116;-68
2022/12/22 11:26:10;;;;;;;13.68;7.30;;;11.50;82.00;;;;;;5055091;28;20136;-69
2022/12/22 11:29:16;;;;;;;17.00;7.80;;;11.50;82.00;;;;;;5058873;28;20050;-68
2022/12/22 11:32:09;;;;;;;13.30;7.03;;;11.40;82.00;;;;;;4995310;28;20034;-70
2022/12/22 11:35:01;;;;;;;17.83;8.10;;;11.40;82.00;;;;;;5008197;28;20128;-68
2022/12/22 11:37:47;;;;;;;15.45;8.32;;;11.40;82.00;;;;;;4984390;28;20053;-68
2022/12/22 11:40:15;;;;;;;19.55;9.13;;;11.40;82.10;;;;;;5016878;28;20083;-67
2022/12/22 11:43:06;;;;;;;17.92;9.80;;;11.50;82.10;;;;;;5025229;28;20030;-68
2022/12/22 11:45:53;;;;;;;18.65;9.43;;;11.50;82.00;;;;;;5034274;28;20025;-67
2022/12/22 11:48:27;;;;;;;19.05;10.57;;;11.50;82.00;;;;;;5018135;28;20363;-67
2022/12/22 11:50:58;;;;;;;19.50;11.20;;;11.50;81.90;;;;;;5016109;28;20022;-67
2022/12/22 11:54:03;;;;;;;20.77;11.55;;;11.60;81.90;;;;;;5010146;28;20446;-68
2022/12/22 11:56:36;;;;;;;21.08;12.40;;;11.60;81.90;;;;;;5052342;28;20037;-67
2022/12/22 11:59:16;;;;;;;23.83;13.38;;;11.60;81.90;;;;;;5073345;28;20043;-68
2022/12/22 12:01:56;;;;;;;24.92;13.50;;;11.50;81.90;;;;;;5078051;28;20138;-68
2022/12/22 12:04:39;;;;;;;23.13;13.27;;;11.50;82.30;;;;;;5108371;28;20031;-66
2022/12/22 12:07:14;;;;;;;25.17;14.77;;;11.50;82.00;;;;;;5103894;28;20031;-67
2022/12/22 12:09:45;;;;;;;25.83;13.60;;;11.40;82.00;;;;;;5113192;28;20038;-67
2022/12/22 12:12:44;;;;;;;22.42;12.90;;;11.40;82.10;;;;;;5102873;28;20030;-67
2022/12/22 12:15:30;;;;;;;24.52;13.23;;;11.40;82.10;;;;;;5113566;28;20111;-67
2022/12/22 12:18:41;;;;;;;26.08;13.23;;;11.50;82.10;;;;;;5103267;28;20472;-67
2022/12/22 12:21:27;;;;;;;23.23;13.57;;;11.60;82.00;;;;;;5119899;27;20028;-67
2022/12/22 12:24:17;;;;;;;21.80;13.07;;;11.60;82.00;;;;;;5095672;28;20051;-67
2022/12/22 12:27:23;;;;;;;23.52;12.90;;;11.60;82.00;;;;;;5095708;28;20042;-67
2022/12/22 12:30:10;;;;;;;22.42;13.10;;;11.60;82.00;;;;;;5095554;28;20020;-68
2022/12/22 12:32:52;;;;;;;25.55;13.05;;;11.60;82.10;;;;;;5108683;27;20016;-68
2022/12/22 12:35:21;;;;;;;22.42;13.07;;;11.60;82.20;;;;;;5102092;27;20031;-68
2022/12/22 12:37:51;;;;;;;22.48;12.93;;;11.60;82.20;;;;;;5094562;28;20016;-68
2022/12/22 12:40:46;;;;;;;19.35;11.55;;;11.60;82.20;;;;;;5094931;28;20028;-68
2022/12/22 12:43:13;;;;;;;19.25;10.75;;;11.60;82.10;;;;;;5098344;28;20502;-68
2022/12/22 12:45:41;;;;;;;20.48;10.77;;;11.60;82.20;;;;;;5095989;28;20047;-68
2022/12/22 12:48:23;;;;;;;19.58;10.32;;;11.60;82.80;;;;;;5094506;28;20353;-68
2022/12/22 12:50:58;;;;;;;15.75;9.95;;;11.70;82.10;;;;;;5080766;28;20039;-68
2022/12/22 12:53:25;;;;;;;19.35;9.35;;;11.70;82.20;;;;;;5103987;28;20048;-68
2022/12/22 12:55:54;;;;;;;16.88;9.65;;;11.70;82.10;;;;;;5094431;28;20024;-68
2022/12/22 12:58:37;;;;;;;15.60;8.35;;;11.70;81.90;;;;;;5105557;27;20085;-68
2022/12/22 13:01:04;;;;;;;16.08;8.73;;;11.80;81.70;;;;;;5094148;28;20032;-68
2022/12/22 13:03:30;;;;;;;17.55;8.45;;;11.80;81.70;;;;;;5095896;28;20085;-68
2022/12/22 13:06:04;;;;;;;13.95;8.15;;;11.70;81.50;;;;;;5105401;27;20027;-68
2022/12/22 13:08:31;;;;;;;14.93;7.95;;;11.70;81.40;;;;;;5086771;28;20122;-68
2022/12/22 13:10:57;;;;;;;14.32;7.60;;;11.70;81.40;;;;;;5099693;28;20024;-68
2022/12/22 13:13:22;;;;;;;15.32;7.90;;;11.70;81.20;;;;;;5095240;28;20392;-68
2022/12/22 13:16:03;;;;;;;15.02;7.43;;;11.70;81.10;;;;;;5094770;28;20035;-68
2022/12/22 13:18:32;;;;;;;16.13;7.90;;;11.70;81.00;;;;;;5098037;28;20338;-68
2022/12/22 13:20:59;;;;;;;14.15;6.80;;;11.70;81.00;;;;;;5102623;28;20281;-68
2022/12/22 13:23:35;;;;;;;15.63;7.25;;;11.60;80.80;;;;;;5093985;28;20028;-68
2022/12/22 13:26:16;;;;;;;15.90;7.53;;;11.60;80.70;;;;;;5094788;28;20032;-68
2022/12/22 13:28:52;;;;;;;14.85;8.55;;;11.60;80.70;;;;;;5098256;28;20027;-68
2022/12/22 13:31:35;;;;;;;17.70;9.02;;;11.60;80.70;;;;;;5102285;28;20352;-68
2022/12/22 13:34:26;;;;;;;17.65;9.27;;;11.60;80.70;;;;;;5111644;28;20442;-68
2022/12/22 13:36:53;;;;;;;16.88;9.98;;;11.60;80.60;;;;;;5105100;28;20027;-68
2022/12/22 13:39:18;;;;;;;20.00;10.60;;;11.50;80.60;;;;;;5096653;28;20344;-68
2022/12/22 13:41:48;;;;;;;19.90;10.93;;;11.50;80.50;;;;;;5094947;28;20027;-67
2022/12/22 13:44:27;;;;;;;19.60;11.30;;;11.50;80.40;;;;;;5094199;28;20023;-67
2022/12/22 13:46:55;;;;;;;20.85;12.68;;;11.50;80.40;;;;;;5094557;28;20313;-67
2022/12/22 13:49:24;;;;;;;21.75;13.63;;;11.50;80.40;;;;;;5094359;28;20065;-68
2022/12/22 13:51:50;;;;;;;21.15;13.23;;;11.50;80.40;;;;;;5093257;28;20039;-67
2022/12/22 13:54:29;;;;;;;21.83;13.27;;;11.50;80.40;;;;;;5093433;28;20020;-67
2022/12/22 13:56:57;;;;;;;23.92;14.73;;;11.40;80.30;;;;;;5094538;28;20359;-67
2022/12/22 13:59:33;;;;;;;24.35;14.32;;;11.50;80.40;;;;;;5094178;28;20478;-68
2022/12/22 14:02:19;;;;;;;23.60;15.23;;;11.50;80.40;;;;;;5093216;28;20122;-69
2022/12/22 14:05:05;;;;;;;23.52;15.48;;;11.50;81.00;;;;;;5120646;28;20024;-68
2022/12/22 14:07:31;;;;;;;22.00;14.45;;;11.50;80.40;;;;;;5111164;27;20032;-69
2022/12/22 14:09:57;;;;;;;24.40;14.70;;;11.50;80.40;;;;;;5115656;27;20027;-67
2022/12/22 14:12:26;;;;;;;25.48;15.75;;;11.50;80.50;;;;;;5110891;28;20024;-67
2022/12/22 14:14:54;;;;;;;25.27;16.23;;;11.50;80.50;;;;;;5115921;28;20427;-67
2022/12/22 14:17:27;;;;;;;24.08;16.13;;;11.50;80.50;;;;;;5102826;28;20031;-67
2022/12/22 14:19:56;;;;;;;25.48;15.93;;;11.50;80.50;;;;;;5111262;28;20483;-67
2022/12/22 14:22:26;;;;;;;25.02;15.77;;;11.50;80.50;;;;;;5102952;28;20085;-67
2022/12/22 14:24:56;;;;;;;25.25;17.25;;;11.50;80.50;;;;;;5108172;28;20035;-67
2022/12/22 14:27:31;;;;;;;27.52;16.73;;;11.50;80.50;;;;;;5099505;28;20390;-67
2022/12/22 14:30:00;;;;;;;25.30;15.93;;;11.50;80.60;;;;;;5104710;28;20453;-67
2022/12/22 14:32:36;;;;;;;25.42;17.17;;;11.50;80.60;;;;;;5108563;28;20047;-70
2022/12/22 14:35:03;;;;;;;24.60;15.95;;;11.50;80.70;;;;;;5106386;28;20046;-70
2022/12/22 14:37:28;;;;;;;26.75;17.17;;;11.50;81.30;;;;;;5106466;28;20034;-71
2022/12/22 14:39:55;;;;;;;24.52;16.63;;;11.50;80.60;;;;;;5095315;28;20028;-69
2022/12/22 14:42:21;;;;;;;26.33;16.15;;;11.50;80.60;;;;;;5090128;28;20020;-70
2022/12/22 14:44:48;;;;;;;25.02;16.80;;;11.40;80.60;;;;;;5111871;27;20074;-69
2022/12/22 14:47:22;;;;;;;29.30;18.17;;;11.50;80.70;;;;;;5095535;28;20119;-69
2022/12/22 14:49:54;;;;;;;30.05;17.92;;;11.50;80.70;;;;;;5129950;27;20353;-70
2022/12/22 14:52:21;;;;;;;;;;;11.40;80.60;;;;;;5109275;28;20030;-69
2022/12/22 14:54:49;;;;;;;25.90;16.13;;;11.40;80.60;;;;;;5112130;27;20364;-67
2022/12/22 14:57:20;;;;;;;25.23;17.08;;;11.40;80.70;;;;;;5112759;27;20336;-67
2022/12/22 15:00:01;;;;;;;27.75;18.17;;;11.40;80.80;;;;;;5117043;28;20051;-67
2022/12/22 15:02:36;;;;;;;29.80;19.30;;;11.40;80.80;;;;;;5131525;27;20027;-67
2022/12/22 15:05:32;;;;;;;28.95;18.42;;;11.40;80.80;;;;;;5121405;27;20118;-67
2022/12/22 15:07:59;;;;;;;27.08;18.75;;;11.40;80.80;;;;;;5115467;28;20063;-67
2022/12/22 15:10:27;;;;;;;28.67;17.73;;;11.40;80.90;;;;;;5108711;28;20120;-67
2022/12/22 15:12:58;;;;;;;29.30;18.20;;;11.40;80.90;;;;;;5097260;28;20016;-67
2022/12/22 15:15:25;;;;;;;26.08;16.95;;;11.40;80.80;;;;;;5104495;28;20058;-67
2022/12/22 15:17:52;;;;;;;30.17;18.88;;;11.40;80.80;;;;;;5103748;28;20122;-67
2022/12/22 15:20:21;;;;;;;26.90;18.27;;;11.40;80.90;;;;;;5111498;28;20019;-68
2022/12/22 15:22:47;;;;;;;28.02;17.70;;;11.40;80.90;;;;;;5102810;28;20035;-66
2022/12/22 15:25:22;;;;;;;28.30;19.02;;;11.40;80.90;;;;;;5110439;27;20347;-66
2022/12/22 15:27:48;;;;;;;29.65;18.27;;;11.40;81.00;;;;;;5116183;28;20333;-66
2022/12/22 15:30:18;;;;;;;26.80;17.58;;;11.40;81.00;;;;;;5118912;28;20027;-65
2022/12/22 15:32:44;;;;;;;25.58;17.90;;;11.40;81.00;;;;;;5100412;28;20405;-66
2022/12/22 15:35:19;;;;;;;24.95;16.98;;;11.40;81.00;;;;;;5087708;28;20975;-65
2022/12/22 15:37:45;;;;;;;26.50;17.25;;;11.40;81.70;;;;;;5107433;28;20039;-68
2022/12/22 15:40:14;;;;;;;26.83;17.65;;;11.40;81.10;;;;;;5100068;28;20024;-67
2022/12/22 15:42:40;;;;;;;27.60;18.33;;;11.40;81.10;;;;;;5112599;28;20111;-67
2022/12/22 15:45:06;;;;;;;29.13;18.02;;;11.40;81.10;;;;;;5107812;28;20023;-67
2022/12/22 15:47:32;;;;;;;30.48;19.13;;;11.30;81.10;;;;;;5098631;28;20080;-66
2022/12/22 15:49:58;;;;;;;26.00;17.13;;;11.40;81.10;;;;;;5113076;28;20031;-67
2022/12/22 15:52:24;;;;;;;26.02;17.90;;;11.30;81.10;;;;;;5108349;28;20023;-66
2022/12/22 15:54:50;;;;;;;30.42;19.00;;;11.30;81.10;;;;;;5102379;28;20027;-66
2022/12/22 15:57:16;;;;;;;26.42;17.33;;;11.30;81.20;;;;;;5108459;28;20027;-68
2022/12/22 15:59:41;;;;;;;26.42;18.27;;;11.30;81.30;;;;;;5114467;28;20039;-67
2022/12/22 16:02:10;;;;;;;27.65;17.02;;;11.30;81.30;;;;;;5114986;28;20028;-67
2022/12/22 16:04:36;;;;;;;26.75;17.65;;;11.30;81.30;;;;;;5105050;28;20032;-68
2022/12/22 16:07:02;;;;;;;25.00;16.33;;;11.30;81.30;;;;;;5111163;27;20034;-66
2022/12/22 16:09:38;;;;;;;24.92;16.77;;;11.30;81.40;;;;;;5110844;28;20047;-68
2022/12/22 16:12:22;;;;;;;26.65;17.05;;;11.30;81.50;;;;;;5114264;28;20031;-69
2022/12/22 16:14:53;;;;;;;26.35;16.42;;;11.30;81.50;;;;;;5114821;27;20099;-69
2022/12/22 16:17:21;;;;;;;22.30;14.88;;;11.30;81.60;;;;;;5115750;28;20107;-69
2022/12/22 16:19:47;;;;;;;25.83;16.50;;;11.30;81.60;;;;;;5113659;28;20120;-68
2022/12/22 16:22:16;;;;;;;21.75;14.73;;;11.30;81.80;;;;;;5094523;28;20039;-69
2022/12/22 16:24:44;;;;;;;23.80;15.57;;;11.30;81.80;;;;;;5111855;28;20458;-68
2022/12/22 16:27:14;;;;;;;20.67;13.65;;;11.20;81.80;;;;;;5115040;28;20375;-68